createdAt,value
2023-05-03T00:03:53.633Z,6.9
2023-05-03T00:09:46.246Z,7.1
2023-05-03T00:15:37.755Z,7
2023-05-03T00:21:29.718Z,6.4
2023-05-03T00:27:22.686Z,6.7
2023-05-03T00:33:14.160Z,6.5
2023-05-03T00:39:05.062Z,6.5
2023-05-03T00:44:55.847Z,6.5
2023-05-03T00:50:45.223Z,6.4
2023-05-03T00:56:44.226Z,6.2
2023-05-03T01:02:41.501Z,6
2023-05-03T01:08:34.401Z,6.2
2023-05-03T01:14:26.111Z,6.1
2023-05-03T01:20:17.514Z,5.9
2023-05-03T01:26:09.580Z,5.8
2023-05-03T01:32:01.241Z,5.9
2023-05-03T01:37:53.291Z,5.8
2023-05-03T01:43:44.944Z,5.6
2023-05-03T01:49:37.862Z,5.8
2023-05-03T01:55:29.641Z,5.5
2023-05-03T02:01:21.289Z,5.6
2023-05-03T02:07:13.716Z,5.3
2023-05-03T02:13:07.171Z,5.4
2023-05-03T02:18:59.230Z,5.3
2023-05-03T02:24:51.927Z,5.5
2023-05-03T02:30:43.884Z,5.4
2023-05-03T02:36:35.568Z,5.2
2023-05-03T02:42:27.621Z,5
2023-05-03T02:48:19.375Z,5
2023-05-03T02:54:10.887Z,4.6
2023-05-03T03:00:02.807Z,4.8
2023-05-03T03:05:57.187Z,5
2023-05-03T03:11:47.925Z,4.7
2023-05-03T03:17:39.369Z,4.6
2023-05-03T03:23:32.551Z,4.6
2023-05-03T03:29:24.631Z,4.6
2023-05-03T03:35:15.313Z,4.6
2023-05-03T03:41:07.256Z,4.5
2023-05-03T03:46:59.686Z,4.6
2023-05-03T03:52:51.104Z,4.5
2023-05-03T03:58:43.133Z,4.4
2023-05-03T04:04:35.488Z,4.3
2023-05-03T04:10:26.771Z,4.4
2023-05-03T04:16:19.112Z,4.5
2023-05-03T04:22:11.045Z,4.4
2023-05-03T04:28:03.365Z,4.3
2023-05-03T04:33:55.261Z,4.4
2023-05-03T04:39:46.934Z,4.2
2023-05-03T04:45:39.252Z,4.3
2023-05-03T04:51:31.242Z,4.4
2023-05-03T04:57:23.310Z,4.6
2023-05-03T05:03:15.396Z,4.6
2023-05-03T05:09:08.031Z,5.1
2023-05-03T05:15:00.960Z,5.8
2023-05-03T05:20:53.072Z,6.2
2023-05-03T05:26:45.415Z,7.6
2023-05-03T05:32:37.722Z,7.2
2023-05-03T05:38:30.546Z,7.5
2023-05-03T05:44:24.226Z,8.3
2023-05-03T05:50:18.483Z,8.7
2023-05-03T05:56:12.482Z,9.6
2023-05-03T06:08:35.848Z,9.9
2023-05-03T06:27:57.505Z,9.1
2023-05-03T07:27:20.332Z,9.3
2023-05-03T07:33:12.636Z,9.3
2023-05-03T07:39:07.576Z,9.7
2023-05-03T07:51:18.220Z,10
2023-05-03T07:57:29.672Z,10.1
2023-05-03T08:03:26.779Z,10.3
2023-05-03T08:40:41.913Z,11
2023-05-03T08:46:34.010Z,11.2
2023-05-03T08:52:28.694Z,11.4
2023-05-03T08:58:21.022Z,11.1
2023-05-03T09:04:15.621Z,11.2
2023-05-03T09:10:12.880Z,11.4
2023-05-03T10:29:10.416Z,13.8
2023-05-03T10:41:34.624Z,13.8
2023-05-03T10:47:36.032Z,13.5
2023-05-03T10:59:39.734Z,14.3
2023-05-03T11:18:19.668Z,14.3
2023-05-03T11:42:52.371Z,15.6
2023-05-03T11:48:43.558Z,15.4
2023-05-03T11:54:39.492Z,15.7
2023-05-03T12:00:32.619Z,15.3
2023-05-03T12:06:25.849Z,15.1
2023-05-03T12:12:35.842Z,15.2
2023-05-03T12:18:40.829Z,15.8
2023-05-03T12:24:39.119Z,16.1
2023-05-03T12:30:46.382Z,16.1
2023-05-03T12:36:44.292Z,16.2
2023-05-03T12:55:17.922Z,17
2023-05-03T13:08:50.462Z,16.8
2023-05-03T13:14:53.614Z,16.6
2023-05-03T13:38:40.940Z,17
2023-05-03T13:44:34.169Z,17.1
2023-05-03T13:50:27.379Z,17.4
2023-05-03T13:56:33.484Z,17.5
2023-05-03T14:20:03.749Z,17.7
2023-05-03T14:26:05.227Z,17.7
2023-05-03T14:44:17.406Z,17.9
2023-05-03T14:50:10.805Z,18.5
2023-05-03T14:56:04.054Z,18.2
2023-05-03T15:01:56.552Z,18.2
2023-05-03T15:13:54.241Z,18.2
2023-05-03T15:31:55.931Z,18.6
2023-05-03T15:44:15.094Z,18.6
2023-05-03T15:50:09.135Z,18.7
2023-05-03T15:56:03.889Z,18.9
2023-05-03T16:01:57.756Z,18.9
2023-05-03T16:07:50.729Z,19
2023-05-03T16:13:48.406Z,18.9
2023-05-03T16:19:49.240Z,18.9
2023-05-03T16:38:05.707Z,18.7
2023-05-03T16:43:58.494Z,19
2023-05-03T16:50:11.229Z,19
2023-05-03T17:01:59.656Z,19.1
2023-05-03T17:07:53.547Z,18.9
2023-05-03T17:13:55.599Z,18.9
2023-05-03T17:20:03.568Z,19
2023-05-03T17:25:55.094Z,18.8
2023-05-03T17:31:49.079Z,18.7
2023-05-03T17:44:05.430Z,18.6
2023-05-03T17:50:13.855Z,18.7
2023-05-03T17:56:11.160Z,18.6
2023-05-03T18:02:04.830Z,18.4
2023-05-03T18:07:59.106Z,18.2
2023-05-03T18:13:54.711Z,18.1
2023-05-03T18:19:48.978Z,17.9
2023-05-03T18:25:44.396Z,17.8
2023-05-03T18:31:38.046Z,17.5
2023-05-03T18:37:29.726Z,17.1
2023-05-03T18:43:20.496Z,17
2023-05-03T18:49:11.746Z,16.5
2023-05-03T18:55:03.315Z,16.4
2023-05-03T19:00:56.862Z,16.1
2023-05-03T19:06:49.122Z,15.8
2023-05-03T19:12:41.012Z,15.5
2023-05-03T19:18:33.454Z,15.4
2023-05-03T19:24:25.969Z,15.1
2023-05-03T19:30:17.151Z,14.9
2023-05-03T19:36:08.578Z,14.7
2023-05-03T19:42:00.947Z,14.3
2023-05-03T19:47:53.458Z,14.2
2023-05-03T19:53:46.594Z,14.2
2023-05-03T19:59:41.503Z,13.7
2023-05-03T20:05:33.968Z,13.5
2023-05-03T20:11:31.332Z,13.5
2023-05-03T20:17:24.317Z,13.3
2023-05-03T20:23:17.951Z,13.3
2023-05-03T20:29:11.014Z,13.1
2023-05-03T20:35:05.375Z,13
2023-05-03T20:40:59.917Z,12.9
2023-05-03T20:46:52.152Z,12.6
2023-05-03T20:52:53.632Z,12.6
2023-05-03T20:58:46.494Z,12.3
2023-05-03T21:04:40.485Z,12.2
2023-05-03T21:10:31.981Z,12.3
2023-05-03T21:16:25.928Z,12.3
2023-05-03T22:24:54.261Z,10.7
2023-05-03T22:30:46.283Z,10.8
2023-05-03T22:36:38.651Z,10.8
